sensor_id;sensor_type;location;lat;lon;timestamp;pressure;altitude;pressure_sealevel;temperature;humidity
55217;BME280;41086;46.736;15.666;2023-03-14T00:01:40;97383.50;;;9.95;100.00
55217;BME280;41086;46.736;15.666;2023-03-14T00:04:09;97392.97;;;9.97;100.00
55217;BME280;41086;46.736;15.666;2023-03-14T00:06:36;97376.78;;;9.91;100.00
55217;BME280;41086;46.736;15.666;2023-03-14T00:09:03;97374.78;;;9.83;100.00
55217;BME280;41086;46.736;15.666;2023-03-14T00:11:29;97369.94;;;9.88;100.00
55217;BME280;41086;46.736;15.666;2023-03-14T00:13:57;97365.94;;;9.94;100.00
55217;BME280;41086;46.736;15.666;2023-03-14T00:16:24;97362.25;;;10.06;100.00
55217;BME280;41086;46.736;15.666;2023-03-14T00:18:50;97361.72;;;10.12;100.00
55217;BME280;41086;46.736;15.666;2023-03-14T00:21:17;97363.53;;;10.12;100.00
55217;BME280;41086;46.736;15.666;2023-03-14T00:23:44;97371.56;;;10.21;100.00
55217;BME280;41086;46.736;15.666;2023-03-14T00:26:13;97370.59;;;10.43;98.65
55217;BME280;41086;46.736;15.666;2023-03-14T00:28:42;97359.53;;;11.00;93.85
55217;BME280;41086;46.736;15.666;2023-03-14T00:31:11;97367.69;;;11.37;90.55
55217;BME280;41086;46.736;15.666;2023-03-14T00:33:40;97361.84;;;11.72;86.63
55217;BME280;41086;46.736;15.666;2023-03-14T00:36:09;97372.22;;;12.05;83.97
55217;BME280;41086;46.736;15.666;2023-03-14T00:38:38;97363.13;;;12.07;82.48
55217;BME280;41086;46.736;15.666;2023-03-14T00:41:08;97368.69;;;12.24;81.56
55217;BME280;41086;46.736;15.666;2023-03-14T00:43:35;97374.41;;;12.38;80.29
55217;BME280;41086;46.736;15.666;2023-03-14T00:46:02;97367.28;;;12.39;80.15
55217;BME280;41086;46.736;15.666;2023-03-14T00:48:28;97364.03;;;12.45;78.77
55217;BME280;41086;46.736;15.666;2023-03-14T00:50:55;97369.03;;;12.95;75.70
55217;BME280;41086;46.736;15.666;2023-03-14T00:53:22;97359.75;;;12.72;76.36
55217;BME280;41086;46.736;15.666;2023-03-14T00:55:49;97355.03;;;12.56;77.26
55217;BME280;41086;46.736;15.666;2023-03-14T00:58:17;97345.00;;;12.50;77.76
55217;BME280;41086;46.736;15.666;2023-03-14T01:00:45;97340.81;;;12.47;78.21
55217;BME280;41086;46.736;15.666;2023-03-14T01:03:13;97340.94;;;12.55;78.01
55217;BME280;41086;46.736;15.666;2023-03-14T01:05:40;97343.09;;;12.70;76.93
55217;BME280;41086;46.736;15.666;2023-03-14T01:08:07;97322.53;;;12.72;76.43
55217;BME280;41086;46.736;15.666;2023-03-14T01:10:38;97312.34;;;12.67;76.11
55217;BME280;41086;46.736;15.666;2023-03-14T01:13:04;97315.34;;;12.54;77.10
55217;BME280;41086;46.736;15.666;2023-03-14T01:15:33;97315.78;;;12.40;78.35
55217;BME280;41086;46.736;15.666;2023-03-14T01:18:01;97296.84;;;12.25;78.86
55217;BME280;41086;46.736;15.666;2023-03-14T01:20:28;97281.38;;;12.01;81.60
55217;BME280;41086;46.736;15.666;2023-03-14T01:22:55;97253.47;;;11.68;83.93
55217;BME280;41086;46.736;15.666;2023-03-14T01:25:22;97281.72;;;11.59;85.95
55217;BME280;41086;46.736;15.666;2023-03-14T01:27:49;97273.88;;;11.38;87.72
55217;BME280;41086;46.736;15.666;2023-03-14T01:30:16;97279.03;;;11.20;91.64
55217;BME280;41086;46.736;15.666;2023-03-14T01:32:43;97274.56;;;11.11;93.15
55217;BME280;41086;46.736;15.666;2023-03-14T01:35:10;97260.03;;;10.86;97.45
55217;BME280;41086;46.736;15.666;2023-03-14T01:37:38;97267.81;;;10.78;98.98
55217;BME280;41086;46.736;15.666;2023-03-14T01:40:10;97254.66;;;10.67;99.17
55217;BME280;41086;46.736;15.666;2023-03-14T01:42:38;97237.78;;;10.58;99.19
55217;BME280;41086;46.736;15.666;2023-03-14T01:45:05;97244.88;;;10.48;99.55
55217;BME280;41086;46.736;15.666;2023-03-14T01:47:32;97239.53;;;10.38;100.00
55217;BME280;41086;46.736;15.666;2023-03-14T01:50:03;97235.63;;;10.32;100.00
55217;BME280;41086;46.736;15.666;2023-03-14T01:52:44;97219.53;;;10.24;100.00
55217;BME280;41086;46.736;15.666;2023-03-14T01:55:19;97221.63;;;10.20;100.00
55217;BME280;41086;46.736;15.666;2023-03-14T01:57:51;97219.09;;;10.19;100.00
55217;BME280;41086;46.736;15.666;2023-03-14T02:00:22;97221.69;;;10.09;100.00
55217;BME280;41086;46.736;15.666;2023-03-14T02:02:58;97215.00;;;10.05;100.00
55217;BME280;41086;46.736;15.666;2023-03-14T02:05:30;97216.28;;;10.11;100.00
55217;BME280;41086;46.736;15.666;2023-03-14T02:08:10;97197.19;;;10.17;100.00
55217;BME280;41086;46.736;15.666;2023-03-14T02:10:48;97201.72;;;10.26;100.00
55217;BME280;41086;46.736;15.666;2023-03-14T02:13:20;97183.16;;;10.26;100.00
55217;BME280;41086;46.736;15.666;2023-03-14T02:16:06;97190.59;;;10.32;100.00
55217;BME280;41086;46.736;15.666;2023-03-14T02:18:51;97204.31;;;10.57;100.00
55217;BME280;41086;46.736;15.666;2023-03-14T02:22:13;97200.38;;;10.11;100.00
55217;BME280;41086;46.736;15.666;2023-03-14T02:24:54;97216.25;;;9.17;100.00
55217;BME280;41086;46.736;15.666;2023-03-14T02:27:23;97220.72;;;9.17;100.00
55217;BME280;41086;46.736;15.666;2023-03-14T02:30:00;97215.72;;;9.02;100.00
55217;BME280;41086;46.736;15.666;2023-03-14T02:32:30;97207.50;;;8.41;100.00
55217;BME280;41086;46.736;15.666;2023-03-14T02:35:00;97211.69;;;8.43;100.00
55217;BME280;41086;46.736;15.666;2023-03-14T02:37:57;97210.50;;;8.25;100.00
55217;BME280;41086;46.736;15.666;2023-03-14T02:40:32;97201.00;;;8.34;100.00
55217;BME280;41086;46.736;15.666;2023-03-14T02:42:59;97194.75;;;8.46;100.00
55217;BME280;41086;46.736;15.666;2023-03-14T02:48:03;97194.50;;;8.60;100.00
55217;BME280;41086;46.736;15.666;2023-03-14T02:50:34;97195.38;;;8.82;100.00
55217;BME280;41086;46.736;15.666;2023-03-14T02:53:01;97206.13;;;9.01;100.00
55217;BME280;41086;46.736;15.666;2023-03-14T02:55:28;97201.56;;;9.24;100.00
55217;BME280;41086;46.736;15.666;2023-03-14T02:57:59;97186.88;;;9.31;100.00
55217;BME280;41086;46.736;15.666;2023-03-14T03:00:27;97210.47;;;9.44;100.00
55217;BME280;41086;46.736;15.666;2023-03-14T03:02:54;97191.28;;;9.42;100.00
55217;BME280;41086;46.736;15.666;2023-03-14T03:05:21;97195.44;;;9.66;100.00
55217;BME280;41086;46.736;15.666;2023-03-14T03:07:48;97184.66;;;9.58;100.00
55217;BME280;41086;46.736;15.666;2023-03-14T03:10:16;97184.94;;;9.54;100.00
55217;BME280;41086;46.736;15.666;2023-03-14T03:12:43;97195.78;;;9.51;100.00
55217;BME280;41086;46.736;15.666;2023-03-14T03:15:11;97179.81;;;9.42;100.00
55217;BME280;41086;46.736;15.666;2023-03-14T03:17:37;97196.81;;;9.39;100.00
55217;BME280;41086;46.736;15.666;2023-03-14T03:20:05;97206.28;;;9.21;100.00
55217;BME280;41086;46.736;15.666;2023-03-14T03:22:36;97203.91;;;9.18;100.00
55217;BME280;41086;46.736;15.666;2023-03-14T03:25:08;97204.47;;;9.21;100.00
55217;BME280;41086;46.736;15.666;2023-03-14T03:27:36;97182.81;;;9.27;100.00
55217;BME280;41086;46.736;15.666;2023-03-14T03:30:05;97194.03;;;9.41;100.00
55217;BME280;41086;46.736;15.666;2023-03-14T03:32:34;97182.81;;;9.48;100.00
55217;BME280;41086;46.736;15.666;2023-03-14T03:35:03;97190.22;;;9.54;100.00
55217;BME280;41086;46.736;15.666;2023-03-14T03:37:33;97178.44;;;9.68;100.00
55217;BME280;41086;46.736;15.666;2023-03-14T03:40:01;97155.16;;;9.83;100.00
55217;BME280;41086;46.736;15.666;2023-03-14T03:42:33;97161.06;;;9.96;100.00
55217;BME280;41086;46.736;15.666;2023-03-14T03:45:01;97146.03;;;10.07;100.00
55217;BME280;41086;46.736;15.666;2023-03-14T03:47:30;97140.09;;;10.24;100.00
55217;BME280;41086;46.736;15.666;2023-03-14T03:49:57;97133.34;;;10.51;100.00
55217;BME280;41086;46.736;15.666;2023-03-14T03:52:24;97106.03;;;10.60;100.00
55217;BME280;41086;46.736;15.666;2023-03-14T03:54:50;97129.88;;;10.79;100.00
55217;BME280;41086;46.736;15.666;2023-03-14T03:57:17;97135.47;;;10.86;100.00
55217;BME280;41086;46.736;15.666;2023-03-14T03:59:44;97134.75;;;10.84;100.00
55217;BME280;41086;46.736;15.666;2023-03-14T04:02:11;97144.78;;;10.90;100.00
55217;BME280;41086;46.736;15.666;2023-03-14T04:04:38;97174.78;;;11.00;100.00
55217;BME280;41086;46.736;15.666;2023-03-14T04:07:05;97185.94;;;11.04;100.00
55217;BME280;41086;46.736;15.666;2023-03-14T04:09:32;97187.47;;;11.06;100.00
55217;BME280;41086;46.736;15.666;2023-03-14T04:12:19;97181.06;;;11.09;100.00
55217;BME280;41086;46.736;15.666;2023-03-14T04:15:18;97170.19;;;11.22;100.00
55217;BME280;41086;46.736;15.666;2023-03-14T04:17:49;97167.50;;;11.31;100.00
55217;BME280;41086;46.736;15.666;2023-03-14T04:20:16;97161.78;;;11.46;100.00
55217;BME280;41086;46.736;15.666;2023-03-14T04:22:43;97181.84;;;11.58;100.00
55217;BME280;41086;46.736;15.666;2023-03-14T04:25:10;97179.19;;;11.58;100.00
55217;BME280;41086;46.736;15.666;2023-03-14T04:27:43;97172.47;;;11.64;100.00
55217;BME280;41086;46.736;15.666;2023-03-14T04:30:17;97159.06;;;11.65;100.00
55217;BME280;41086;46.736;15.666;2023-03-14T04:32:54;97169.78;;;11.73;100.00
55217;BME280;41086;46.736;15.666;2023-03-14T04:35:23;97155.25;;;11.77;100.00
55217;BME280;41086;46.736;15.666;2023-03-14T04:37:54;97158.34;;;11.73;100.00
55217;BME280;41086;46.736;15.666;2023-03-14T04:40:22;97158.88;;;11.76;100.00
55217;BME280;41086;46.736;15.666;2023-03-14T04:42:52;97146.63;;;11.66;100.00
55217;BME280;41086;46.736;15.666;2023-03-14T04:45:20;97146.22;;;11.61;100.00
55217;BME280;41086;46.736;15.666;2023-03-14T04:47:47;97165.78;;;11.60;100.00
55217;BME280;41086;46.736;15.666;2023-03-14T04:50:17;97152.25;;;11.53;100.00
55217;BME280;41086;46.736;15.666;2023-03-14T04:52:46;97149.06;;;11.49;100.00
55217;BME280;41086;46.736;15.666;2023-03-14T04:55:14;97159.66;;;11.49;100.00
55217;BME280;41086;46.736;15.666;2023-03-14T04:57:40;97157.44;;;11.45;100.00
55217;BME280;41086;46.736;15.666;2023-03-14T05:00:10;97152.69;;;11.48;100.00
55217;BME280;41086;46.736;15.666;2023-03-14T05:02:46;97156.31;;;11.47;100.00
55217;BME280;41086;46.736;15.666;2023-03-14T05:05:42;97146.69;;;11.46;100.00
55217;BME280;41086;46.736;15.666;2023-03-14T05:08:34;97150.31;;;11.45;100.00
55217;BME280;41086;46.736;15.666;2023-03-14T05:11:21;97134.84;;;11.41;100.00
55217;BME280;41086;46.736;15.666;2023-03-14T05:14:06;97144.56;;;11.50;100.00
55217;BME280;41086;46.736;15.666;2023-03-14T05:16:39;97147.63;;;11.55;100.00
55217;BME280;41086;46.736;15.666;2023-03-14T05:19:25;97154.34;;;11.59;100.00
55217;BME280;41086;46.736;15.666;2023-03-14T05:22:09;97136.47;;;11.51;100.00
55217;BME280;41086;46.736;15.666;2023-03-14T05:24:56;97137.84;;;11.56;100.00
55217;BME280;41086;46.736;15.666;2023-03-14T05:27:35;97141.34;;;11.56;100.00
55217;BME280;41086;46.736;15.666;2023-03-14T05:30:19;97126.56;;;11.53;100.00
55217;BME280;41086;46.736;15.666;2023-03-14T05:33:05;97145.41;;;11.50;100.00
55217;BME280;41086;46.736;15.666;2023-03-14T05:35:42;97132.19;;;11.41;100.00
55217;BME280;41086;46.736;15.666;2023-03-14T05:38:27;97128.28;;;11.35;100.00
55217;BME280;41086;46.736;15.666;2023-03-14T05:41:06;97136.09;;;11.37;100.00
55217;BME280;41086;46.736;15.666;2023-03-14T05:43:38;97120.16;;;11.37;100.00
55217;BME280;41086;46.736;15.666;2023-03-14T05:46:35;97122.00;;;11.36;100.00
55217;BME280;41086;46.736;15.666;2023-03-14T05:49:22;97112.66;;;11.32;100.00
55217;BME280;41086;46.736;15.666;2023-03-14T05:52:07;97102.19;;;11.30;100.00
55217;BME280;41086;46.736;15.666;2023-03-14T05:54:36;97106.38;;;11.33;100.00
55217;BME280;41086;46.736;15.666;2023-03-14T05:57:26;97114.88;;;11.37;100.00
55217;BME280;41086;46.736;15.666;2023-03-14T06:00:16;97132.31;;;11.49;100.00
55217;BME280;41086;46.736;15.666;2023-03-14T06:02:55;97128.63;;;11.60;100.00
55217;BME280;41086;46.736;15.666;2023-03-14T06:05:28;97112.00;;;11.67;100.00
55217;BME280;41086;46.736;15.666;2023-03-14T06:07:59;97110.97;;;11.78;100.00
55217;BME280;41086;46.736;15.666;2023-03-14T06:10:27;97094.75;;;11.81;100.00
55217;BME280;41086;46.736;15.666;2023-03-14T06:12:54;97084.81;;;11.83;100.00
55217;BME280;41086;46.736;15.666;2023-03-14T06:15:21;97066.81;;;11.87;100.00
55217;BME280;41086;46.736;15.666;2023-03-14T06:17:51;97064.25;;;11.95;100.00
55217;BME280;41086;46.736;15.666;2023-03-14T06:20:17;97067.75;;;11.95;100.00
55217;BME280;41086;46.736;15.666;2023-03-14T06:22:44;97092.97;;;12.09;100.00
55217;BME280;41086;46.736;15.666;2023-03-14T06:25:12;97097.38;;;12.18;100.00
55217;BME280;41086;46.736;15.666;2023-03-14T06:27:39;97091.31;;;12.26;100.00
55217;BME280;41086;46.736;15.666;2023-03-14T06:30:06;97115.31;;;12.34;100.00
55217;BME280;41086;46.736;15.666;2023-03-14T06:32:34;97122.31;;;12.35;100.00
55217;BME280;41086;46.736;15.666;2023-03-14T06:35:05;97098.16;;;12.29;100.00
55217;BME280;41086;46.736;15.666;2023-03-14T06:37:37;97111.72;;;12.26;100.00
55217;BME280;41086;46.736;15.666;2023-03-14T06:40:04;97101.84;;;12.18;100.00
55217;BME280;41086;46.736;15.666;2023-03-14T06:42:51;97124.03;;;12.27;100.00
55217;BME280;41086;46.736;15.666;2023-03-14T06:45:20;97140.81;;;12.27;100.00
55217;BME280;41086;46.736;15.666;2023-03-14T06:47:47;97116.22;;;12.25;100.00
55217;BME280;41086;46.736;15.666;2023-03-14T06:50:17;97127.53;;;12.27;100.00
55217;BME280;41086;46.736;15.666;2023-03-14T06:52:46;97112.72;;;12.25;100.00
55217;BME280;41086;46.736;15.666;2023-03-14T06:55:19;97101.94;;;12.26;100.00
55217;BME280;41086;46.736;15.666;2023-03-14T06:57:49;97090.19;;;12.29;100.00
55217;BME280;41086;46.736;15.666;2023-03-14T07:00:16;97081.53;;;12.27;100.00
55217;BME280;41086;46.736;15.666;2023-03-14T07:02:43;97064.38;;;12.21;100.00
55217;BME280;41086;46.736;15.666;2023-03-14T07:05:30;97055.72;;;12.19;100.00
55217;BME280;41086;46.736;15.666;2023-03-14T07:07:57;97054.50;;;12.31;100.00
55217;BME280;41086;46.736;15.666;2023-03-14T07:10:24;97052.38;;;12.35;100.00
55217;BME280;41086;46.736;15.666;2023-03-14T07:12:50;97055.28;;;12.41;100.00
55217;BME280;41086;46.736;15.666;2023-03-14T07:15:21;97053.53;;;12.68;100.00
55217;BME280;41086;46.736;15.666;2023-03-14T07:17:54;97026.19;;;13.02;100.00
55217;BME280;41086;46.736;15.666;2023-03-14T07:20:22;97030.13;;;13.42;100.00
55217;BME280;41086;46.736;15.666;2023-03-14T07:22:50;97048.06;;;13.66;100.00
55217;BME280;41086;46.736;15.666;2023-03-14T07:25:23;97046.66;;;13.88;97.15
55217;BME280;41086;46.736;15.666;2023-03-14T07:27:50;97079.06;;;14.26;96.21
55217;BME280;41086;46.736;15.666;2023-03-14T07:30:17;97077.66;;;14.56;94.68
55217;BME280;41086;46.736;15.666;2023-03-14T07:32:46;97078.84;;;14.78;91.22
55217;BME280;41086;46.736;15.666;2023-03-14T07:35:13;97080.03;;;14.92;88.39
55217;BME280;41086;46.736;15.666;2023-03-14T07:37:41;97076.19;;;15.19;87.11
55217;BME280;41086;46.736;15.666;2023-03-14T07:40:09;97065.13;;;15.46;83.31
55217;BME280;41086;46.736;15.666;2023-03-14T07:42:39;97062.81;;;15.27;83.91
55217;BME280;41086;46.736;15.666;2023-03-14T07:45:35;97054.31;;;15.32;84.21
55217;BME280;41086;46.736;15.666;2023-03-14T07:48:08;97053.78;;;15.36;84.25
55217;BME280;41086;46.736;15.666;2023-03-14T07:50:35;97042.41;;;15.59;82.61
55217;BME280;41086;46.736;15.666;2023-03-14T07:53:02;97031.97;;;15.16;83.34
55217;BME280;41086;46.736;15.666;2023-03-14T07:55:28;97015.31;;;14.98;86.30
55217;BME280;41086;46.736;15.666;2023-03-14T07:57:55;97020.19;;;14.61;86.92
55217;BME280;41086;46.736;15.666;2023-03-14T08:00:22;97026.50;;;15.10;85.52
55217;BME280;41086;46.736;15.666;2023-03-14T08:02:49;97022.94;;;15.42;83.36
55217;BME280;41086;46.736;15.666;2023-03-14T08:05:16;97030.28;;;15.87;79.09
55217;BME280;41086;46.736;15.666;2023-03-14T08:07:43;97020.19;;;16.37;79.61
55217;BME280;41086;46.736;15.666;2023-03-14T08:10:10;97009.50;;;16.37;74.83
55217;BME280;41086;46.736;15.666;2023-03-14T08:12:37;96992.50;;;16.30;73.57
55217;BME280;41086;46.736;15.666;2023-03-14T08:15:04;96984.56;;;16.36;73.23
55217;BME280;41086;46.736;15.666;2023-03-14T08:17:31;96995.34;;;16.28;71.35
55217;BME280;41086;46.736;15.666;2023-03-14T08:19:58;96984.13;;;16.56;72.20
55217;BME280;41086;46.736;15.666;2023-03-14T08:22:24;96981.06;;;16.82;69.25
55217;BME280;41086;46.736;15.666;2023-03-14T08:24:51;96985.75;;;17.18;69.05
55217;BME280;41086;46.736;15.666;2023-03-14T08:27:18;96975.06;;;17.62;66.68
55217;BME280;41086;46.736;15.666;2023-03-14T08:29:45;96967.09;;;16.95;66.15
55217;BME280;41086;46.736;15.666;2023-03-14T08:32:12;96970.03;;;16.62;67.02
55217;BME280;41086;46.736;15.666;2023-03-14T08:34:39;96972.59;;;16.78;67.34
55217;BME280;41086;46.736;15.666;2023-03-14T08:37:06;96948.66;;;17.00;61.38
55217;BME280;41086;46.736;15.666;2023-03-14T08:39:51;96956.28;;;16.65;64.45
55217;BME280;41086;46.736;15.666;2023-03-14T08:42:18;96938.06;;;16.23;66.87
55217;BME280;41086;46.736;15.666;2023-03-14T08:44:45;96975.09;;;16.57;64.21
55217;BME280;41086;46.736;15.666;2023-03-14T08:47:11;96922.81;;;16.69;64.14
55217;BME280;41086;46.736;15.666;2023-03-14T08:49:39;96939.13;;;16.59;64.12
55217;BME280;41086;46.736;15.666;2023-03-14T08:52:06;96945.69;;;16.11;65.95
55217;BME280;41086;46.736;15.666;2023-03-14T08:54:32;96956.50;;;15.47;70.41
55217;BME280;41086;46.736;15.666;2023-03-14T08:56:59;96945.69;;;15.40;71.19
55217;BME280;41086;46.736;15.666;2023-03-14T08:59:26;96936.34;;;15.44;65.52
55217;BME280;41086;46.736;15.666;2023-03-14T09:01:53;96936.56;;;15.26;69.96
55217;BME280;41086;46.736;15.666;2023-03-14T09:04:21;96965.47;;;15.06;71.53
55217;BME280;41086;46.736;15.666;2023-03-14T09:06:48;96964.16;;;15.02;70.74
55217;BME280;41086;46.736;15.666;2023-03-14T09:09:15;96958.50;;;14.89;70.18
55217;BME280;41086;46.736;15.666;2023-03-14T09:11:41;96971.50;;;14.84;72.48
55217;BME280;41086;46.736;15.666;2023-03-14T09:14:08;96984.31;;;15.13;65.69
55217;BME280;41086;46.736;15.666;2023-03-14T09:16:35;96993.88;;;15.47;61.19
55217;BME280;41086;46.736;15.666;2023-03-14T09:19:02;96953.31;;;15.51;59.17
55217;BME280;41086;46.736;15.666;2023-03-14T09:21:29;97004.69;;;15.62;57.92
55217;BME280;41086;46.736;15.666;2023-03-14T09:23:55;97015.72;;;15.59;57.60
55217;BME280;41086;46.736;15.666;2023-03-14T09:26:22;97019.56;;;15.56;57.14
55217;BME280;41086;46.736;15.666;2023-03-14T09:28:49;97003.34;;;15.58;56.93
55217;BME280;41086;46.736;15.666;2023-03-14T09:31:16;97034.06;;;15.62;57.35
55217;BME280;41086;46.736;15.666;2023-03-14T09:33:42;97038.69;;;15.68;57.80
55217;BME280;41086;46.736;15.666;2023-03-14T09:36:11;97039.88;;;15.65;58.03
55217;BME280;41086;46.736;15.666;2023-03-14T09:38:37;97037.19;;;15.65;58.13
55217;BME280;41086;46.736;15.666;2023-03-14T09:41:25;97048.06;;;15.64;57.51
55217;BME280;41086;46.736;15.666;2023-03-14T09:44:09;97109.50;;;15.56;57.83
55217;BME280;41086;46.736;15.666;2023-03-14T09:46:38;97064.97;;;15.48;57.49
55217;BME280;41086;46.736;15.666;2023-03-14T09:49:14;97039.94;;;15.41;56.51
55217;BME280;41086;46.736;15.666;2023-03-14T09:51:47;97045.63;;;15.38;55.40
55217;BME280;41086;46.736;15.666;2023-03-14T09:54:39;97074.31;;;15.44;54.64
55217;BME280;41086;46.736;15.666;2023-03-14T09:57:12;97067.31;;;15.43;55.82
55217;BME280;41086;46.736;15.666;2023-03-14T09:59:43;97038.44;;;15.38;54.80
55217;BME280;41086;46.736;15.666;2023-03-14T10:02:23;97051.28;;;15.43;55.60
55217;BME280;41086;46.736;15.666;2023-03-14T10:04:52;97037.59;;;15.46;55.98
55217;BME280;41086;46.736;15.666;2023-03-14T10:07:30;97035.41;;;15.49;57.65
55217;BME280;41086;46.736;15.666;2023-03-14T10:09:58;97048.94;;;15.48;54.24
55217;BME280;41086;46.736;15.666;2023-03-14T10:12:33;97013.19;;;15.57;53.35
55217;BME280;41086;46.736;15.666;2023-03-14T10:15:10;97017.53;;;15.75;50.99
55217;BME280;41086;46.736;15.666;2023-03-14T10:17:50;97019.81;;;15.86;50.25
55217;BME280;41086;46.736;15.666;2023-03-14T10:20:36;97032.56;;;15.99;49.57
55217;BME280;41086;46.736;15.666;2023-03-14T10:23:21;97024.00;;;16.11;49.41
55217;BME280;41086;46.736;15.666;2023-03-14T10:26:07;97020.94;;;16.23;48.93
55217;BME280;41086;46.736;15.666;2023-03-14T10:28:45;97023.25;;;16.26;48.56
55217;BME280;41086;46.736;15.666;2023-03-14T10:31:14;97006.75;;;16.22;48.73
55217;BME280;41086;46.736;15.666;2023-03-14T10:33:41;96993.56;;;16.21;48.02
55217;BME280;41086;46.736;15.666;2023-03-14T10:36:19;96997.72;;;16.23;46.14
55217;BME280;41086;46.736;15.666;2023-03-14T10:38:47;96981.56;;;16.16;47.06
55217;BME280;41086;46.736;15.666;2023-03-14T10:41:15;96965.66;;;16.23;46.21
55217;BME280;41086;46.736;15.666;2023-03-14T10:43:43;96952.00;;;16.18;45.88
55217;BME280;41086;46.736;15.666;2023-03-14T10:46:18;96945.44;;;16.44;45.08
55217;BME280;41086;46.736;15.666;2023-03-14T10:49:05;96938.84;;;16.92;43.46
55217;BME280;41086;46.736;15.666;2023-03-14T10:51:33;96926.03;;;16.65;43.95
55217;BME280;41086;46.736;15.666;2023-03-14T10:56:28;96916.72;;;17.28;43.99
55217;BME280;41086;46.736;15.666;2023-03-14T10:58:59;96907.59;;;17.73;43.07
55217;BME280;41086;46.736;15.666;2023-03-14T11:06:56;96920.88;;;17.45;43.89
55217;BME280;41086;46.736;15.666;2023-03-14T11:15:25;96948.28;;;17.03;45.69
55217;BME280;41086;46.736;15.666;2023-03-14T11:20:46;96924.19;;;16.65;47.68
55217;BME280;41086;46.736;15.666;2023-03-14T11:28:47;96911.09;;;16.32;48.59
55217;BME280;41086;46.736;15.666;2023-03-14T11:36:22;96949.22;;;16.03;51.03
55217;BME280;41086;46.736;15.666;2023-03-14T11:38:56;96957.88;;;15.82;51.27
55217;BME280;41086;46.736;15.666;2023-03-14T11:41:37;96951.59;;;15.98;51.08
55217;BME280;41086;46.736;15.666;2023-03-14T11:44:17;96974.69;;;15.91;52.31
55217;BME280;41086;46.736;15.666;2023-03-14T11:46:57;96950.91;;;15.73;52.60
55217;BME280;41086;46.736;15.666;2023-03-14T11:52:01;96969.59;;;15.34;54.91
55217;BME280;41086;46.736;15.666;2023-03-14T11:57:04;96942.34;;;14.82;57.43
55217;BME280;41086;46.736;15.666;2023-03-14T12:13:46;97005.50;;;14.66;58.73
55217;BME280;41086;46.736;15.666;2023-03-14T12:18:53;96996.84;;;14.96;57.56
55217;BME280;41086;46.736;15.666;2023-03-14T12:21:21;97004.03;;;14.88;56.17
55217;BME280;41086;46.736;15.666;2023-03-14T12:23:52;97007.34;;;14.57;57.93
55217;BME280;41086;46.736;15.666;2023-03-14T12:26:22;96986.53;;;14.60;57.43
55217;BME280;41086;46.736;15.666;2023-03-14T12:31:37;96986.81;;;14.49;56.81
55217;BME280;41086;46.736;15.666;2023-03-14T12:39:56;96967.00;;;14.52;57.45
55217;BME280;41086;46.736;15.666;2023-03-14T12:45:26;96959.69;;;14.54;57.80
55217;BME280;41086;46.736;15.666;2023-03-14T12:48:03;96926.88;;;14.37;57.49
55217;BME280;41086;46.736;15.666;2023-03-14T12:50:43;96925.34;;;14.34;57.63
55217;BME280;41086;46.736;15.666;2023-03-14T12:56:00;96977.34;;;14.47;58.44
55217;BME280;41086;46.736;15.666;2023-03-14T12:58:42;96982.03;;;14.53;58.12
55217;BME280;41086;46.736;15.666;2023-03-14T13:01:18;96975.31;;;14.49;58.94
55217;BME280;41086;46.736;15.666;2023-03-14T13:03:51;96983.19;;;14.58;57.70
55217;BME280;41086;46.736;15.666;2023-03-14T13:06:57;96988.53;;;14.67;57.81
55217;BME280;41086;46.736;15.666;2023-03-14T13:12:16;96979.19;;;14.54;57.27
55217;BME280;41086;46.736;15.666;2023-03-14T13:14:48;96993.00;;;14.50;57.05
55217;BME280;41086;46.736;15.666;2023-03-14T13:17:22;96988.66;;;14.49;58.78
55217;BME280;41086;46.736;15.666;2023-03-14T13:20:12;96981.47;;;14.49;58.66
55217;BME280;41086;46.736;15.666;2023-03-14T13:22:46;96985.53;;;14.53;58.95
55217;BME280;41086;46.736;15.666;2023-03-14T13:25:15;96977.84;;;14.42;58.00
55217;BME280;41086;46.736;15.666;2023-03-14T13:27:43;97000.84;;;14.59;57.52
55217;BME280;41086;46.736;15.666;2023-03-14T13:32:49;96997.84;;;14.54;57.09
55217;BME280;41086;46.736;15.666;2023-03-14T13:35:28;97000.47;;;14.46;57.21
55217;BME280;41086;46.736;15.666;2023-03-14T13:38:00;97003.13;;;14.46;57.19
55217;BME280;41086;46.736;15.666;2023-03-14T13:40:43;97001.97;;;14.40;58.38
55217;BME280;41086;46.736;15.666;2023-03-14T13:43:16;96989.47;;;14.49;56.82
55217;BME280;41086;46.736;15.666;2023-03-14T13:45:55;96975.66;;;14.37;57.26
55217;BME280;41086;46.736;15.666;2023-03-14T13:48:29;96991.31;;;14.32;57.57
55217;BME280;41086;46.736;15.666;2023-03-14T13:51:09;96991.97;;;14.34;56.93
55217;BME280;41086;46.736;15.666;2023-03-14T13:53:46;96983.16;;;14.42;57.27
55217;BME280;41086;46.736;15.666;2023-03-14T13:56:14;96980.31;;;14.52;57.66
55217;BME280;41086;46.736;15.666;2023-03-14T13:58:41;96958.72;;;14.63;58.80
55217;BME280;41086;46.736;15.666;2023-03-14T14:01:20;96954.69;;;14.59;57.16
55217;BME280;41086;46.736;15.666;2023-03-14T14:03:51;96954.34;;;14.70;56.84
55217;BME280;41086;46.736;15.666;2023-03-14T14:08:45;96950.72;;;14.71;56.58
55217;BME280;41086;46.736;15.666;2023-03-14T14:11:26;96967.53;;;14.63;57.07
55217;BME280;41086;46.736;15.666;2023-03-14T14:14:29;96972.50;;;14.83;56.79
55217;BME280;41086;46.736;15.666;2023-03-14T14:16:59;96978.84;;;14.90;58.28
55217;BME280;41086;46.736;15.666;2023-03-14T14:19:28;96977.50;;;14.94;56.00
55217;BME280;41086;46.736;15.666;2023-03-14T14:21:57;96970.16;;;14.96;56.17
55217;BME280;41086;46.736;15.666;2023-03-14T14:24:28;96958.13;;;15.00;55.64
55217;BME280;41086;46.736;15.666;2023-03-14T14:27:01;96964.31;;;15.09;56.18